Time;durP1;ratioP1;P1;durP2;ratioP2;P2;SDS_P1;SDS_P2;PMS_P1;PMS_P2;Temp;Humidity;BMP_temperature;BMP_pressure;BME280_temperature;BME280_humidity;BME280_pressure;Samples;Min_cycle;Max_cycle;Signal;HPM_P1;HPM_P2
2022/11/15 00:01:30;;;;;;;10.00;6.07;;;8.20;99.90;;;;;;4988796;28;20070;-89
2022/11/15 00:04:14;;;;;;;10.75;6.85;;;8.20;99.90;;;;;;4986112;28;20070;-89
2022/11/15 00:06:59;;;;;;;13.40;6.40;;;8.30;99.90;;;;;;4987495;28;20041;-88
2022/11/15 00:09:43;;;;;;;15.93;6.72;;;8.30;99.90;;;;;;4986381;28;20493;-88
2022/11/15 00:12:28;;;;;;;10.85;6.50;;;8.40;99.90;;;;;;4991795;28;20045;-88
2022/11/15 00:15:12;;;;;;;14.40;7.00;;;8.40;99.90;;;;;;4985483;28;20502;-88
2022/11/15 00:17:56;;;;;;;11.98;6.45;;;8.40;99.90;;;;;;4993833;28;20037;-88
2022/11/15 00:20:40;;;;;;;27.05;11.80;;;8.30;99.90;;;;;;4998147;28;20042;-88
2022/11/15 00:23:25;;;;;;;29.88;13.27;;;8.30;99.90;;;;;;4987860;28;20153;-89
2022/11/15 00:26:14;;;;;;;23.65;10.73;;;8.40;99.90;;;;;;4971150;28;20550;-88
2022/11/15 00:28:58;;;;;;;30.38;12.15;;;8.60;99.90;;;;;;4987947;28;20065;-88
2022/11/15 00:31:42;;;;;;;43.20;15.45;;;8.50;99.90;;;;;;4988079;28;20040;-88
2022/11/15 00:34:26;;;;;;;24.58;8.70;;;8.50;99.90;;;;;;4988608;28;20041;-88
2022/11/15 00:37:10;;;;;;;20.30;8.55;;;8.50;99.90;;;;;;4981138;28;20085;-88
2022/11/15 00:39:54;;;;;;;23.30;10.00;;;8.40;99.90;;;;;;4988548;28;20069;-88
2022/11/15 00:42:39;;;;;;;36.03;14.23;;;8.30;99.90;;;;;;4986502;28;20089;-88
2022/11/15 00:45:25;;;;;;;39.30;14.18;;;8.30;99.90;;;;;;4988221;28;20045;-88
2022/11/15 00:48:09;;;;;;;30.90;10.73;;;8.20;99.90;;;;;;4969723;28;20046;-88
2022/11/15 00:50:53;;;;;;;28.92;11.23;;;8.10;99.90;;;;;;4985935;28;20385;-89
2022/11/15 00:53:37;;;;;;;16.30;8.10;;;8.10;99.90;;;;;;4982520;28;20049;-88
2022/11/15 00:56:21;;;;;;;30.65;13.27;;;8.00;99.90;;;;;;4994631;28;20386;-87
2022/11/15 00:59:05;;;;;;;17.38;7.88;;;8.00;99.90;;;;;;4981764;28;20042;-88
2022/11/15 01:01:49;;;;;;;29.90;13.10;;;7.80;99.90;;;;;;4993202;28;20065;-89
2022/11/15 01:04:33;;;;;;;30.58;10.13;;;7.70;99.90;;;;;;4981767;28;20045;-88
2022/11/15 01:07:18;;;;;;;15.52;7.65;;;7.60;99.90;;;;;;4987765;28;20053;-88
2022/11/15 01:10:03;;;;;;;13.57;6.72;;;7.50;99.90;;;;;;4976910;28;20061;-88
2022/11/15 01:12:47;;;;;;;13.00;6.50;;;7.50;99.90;;;;;;4988817;28;20098;-88
2022/11/15 01:15:31;;;;;;;11.13;6.28;;;7.40;99.90;;;;;;4988307;28;20125;-88
2022/11/15 01:18:15;;;;;;;14.30;6.72;;;7.30;99.90;;;;;;4984129;28;20040;-88
2022/11/15 01:20:59;;;;;;;9.32;6.40;;;7.40;99.90;;;;;;4993297;28;20045;-88
2022/11/15 01:23:44;;;;;;;11.70;5.93;;;7.30;99.90;;;;;;4999923;28;20065;-89
2022/11/15 01:26:28;;;;;;;14.93;6.07;;;7.30;99.90;;;;;;4986119;28;20096;-89
2022/11/15 01:29:13;;;;;;;8.93;5.85;;;7.20;99.90;;;;;;4982673;28;20497;-88
2022/11/15 01:31:57;;;;;;;12.27;6.88;;;7.20;99.90;;;;;;5001398;28;20247;-88
2022/11/15 01:34:41;;;;;;;11.07;6.47;;;7.10;99.90;;;;;;5000953;28;20574;-88
2022/11/15 01:37:25;;;;;;;13.40;5.72;;;7.10;99.90;;;;;;4986746;28;20142;-88
2022/11/15 01:40:10;;;;;;;11.23;6.10;;;7.10;99.90;;;;;;4983666;28;20158;-88
2022/11/15 01:42:54;;;;;;;10.77;6.35;;;7.10;99.90;;;;;;4990136;28;20090;-89
2022/11/15 01:45:38;;;;;;;8.30;5.47;;;7.20;99.90;;;;;;4982619;28;20091;-88
2022/11/15 01:48:30;;;;;;;12.63;6.05;;;7.10;99.90;;;;;;4987157;28;20089;-89
2022/11/15 01:51:17;;;;;;;9.18;5.90;;;7.10;99.90;;;;;;4983870;28;20073;-89
2022/11/15 01:54:11;;;;;;;9.63;6.13;;;7.00;99.90;;;;;;4987324;28;20033;-89
2022/11/15 01:57:02;;;;;;;12.52;6.28;;;6.80;99.90;;;;;;4983890;28;20399;-88
2022/11/15 01:59:47;;;;;;;10.13;5.97;;;6.70;99.90;;;;;;4991558;28;20061;-89
2022/11/15 02:02:32;;;;;;;11.25;6.65;;;6.70;99.90;;;;;;4983539;28;20050;-89
2022/11/15 02:05:26;;;;;;;15.27;7.20;;;6.70;99.90;;;;;;4981525;28;20069;-88
2022/11/15 02:08:19;;;;;;;15.93;7.43;;;6.80;99.90;;;;;;4984377;28;20438;-88
2022/11/15 02:11:07;;;;;;;16.15;7.43;;;6.90;99.90;;;;;;4979761;28;20041;-88
2022/11/15 02:13:52;;;;;;;10.05;6.93;;;7.20;99.90;;;;;;4983857;28;20098;-88
2022/11/15 02:17:03;;;;;;;8.65;6.30;;;7.40;99.90;;;;;;4991145;28;20142;-89
2022/11/15 02:20:25;;;;;;;15.63;7.13;;;7.60;99.90;;;;;;4980608;28;20589;-88
2022/11/15 02:23:29;;;;;;;;;;;7.70;99.90;;;;;;4988321;28;20058;-88
2022/11/15 02:26:41;;;;;;;18.33;6.82;;;7.70;99.90;;;;;;4981266;28;19917;-88
2022/11/15 02:29:48;;;;;;;9.73;6.28;;;7.70;99.90;;;;;;4988217;28;20119;-88
2022/11/15 02:32:37;;;;;;;12.23;6.97;;;7.60;99.90;;;;;;4992290;28;20089;-88
2022/11/15 02:35:28;;;;;;;11.80;6.45;;;7.50;99.90;;;;;;4982575;28;20037;-88
2022/11/15 02:38:40;;;;;;;11.70;6.18;;;7.30;99.90;;;;;;4997432;28;20038;-88
2022/11/15 02:41:38;;;;;;;22.60;9.43;;;7.10;99.90;;;;;;4987372;28;20053;-88
2022/11/15 02:44:32;;;;;;;15.43;9.13;;;6.90;99.90;;;;;;4990126;28;20092;-88
2022/11/15 02:47:17;;;;;;;11.90;7.53;;;6.80;99.90;;;;;;4988161;28;20134;-88
2022/11/15 02:50:07;;;;;;;18.50;6.07;;;6.70;99.90;;;;;;4995838;28;20499;-88
2022/11/15 02:52:51;;;;;;;12.30;5.38;;;6.70;99.90;;;;;;4989803;28;20042;-88
2022/11/15 02:55:44;;;;;;;10.35;6.18;;;6.60;99.90;;;;;;4989245;28;20454;-87
2022/11/15 02:58:44;;;;;;;8.35;5.78;;;6.60;99.90;;;;;;4990837;28;20037;-89
2022/11/15 03:01:45;;;;;;;14.07;6.05;;;6.50;99.90;;;;;;5001534;28;20101;-88
2022/11/15 03:04:32;;;;;;;11.35;6.97;;;6.40;99.90;;;;;;4988281;28;20054;-88
2022/11/15 03:07:35;;;;;;;10.40;6.78;;;6.40;99.90;;;;;;4998037;28;20057;-88
2022/11/15 03:10:32;;;;;;;12.75;6.28;;;6.40;99.90;;;;;;4986820;28;20073;-88
2022/11/15 03:13:19;;;;;;;12.52;7.18;;;6.40;99.90;;;;;;5004181;28;20045;-88
2022/11/15 03:16:14;;;;;;;16.25;7.63;;;6.40;99.90;;;;;;5003993;28;20583;-88
2022/11/15 03:22:49;;;;;;;18.60;7.78;;;6.40;99.90;;;;;;4986326;28;20122;-88
2022/11/15 03:25:36;;;;;;;17.08;7.70;;;6.40;99.90;;;;;;5002816;28;20125;-87
2022/11/15 03:28:25;;;;;;;11.68;6.38;;;6.40;99.90;;;;;;4986401;28;20057;-88
2022/11/15 03:34:43;;;;;;;15.90;7.68;;;6.40;99.90;;;;;;4985423;28;20065;-88
2022/11/15 03:37:34;;;;;;;12.80;7.47;;;6.40;99.90;;;;;;4989761;28;20461;-88
2022/11/15 03:40:24;;;;;;;11.70;6.38;;;6.50;99.90;;;;;;4985286;28;20057;-88
2022/11/15 03:43:14;;;;;;;9.95;6.40;;;6.60;99.90;;;;;;4986072;28;20038;-88
2022/11/15 03:46:07;;;;;;;9.90;6.30;;;6.80;99.90;;;;;;4979749;28;20045;-88
2022/11/15 03:49:03;;;;;;;11.45;6.70;;;7.00;99.90;;;;;;4987279;28;20465;-88
2022/11/15 03:51:48;;;;;;;11.10;6.28;;;7.10;99.90;;;;;;4987897;28;20041;-89
2022/11/15 03:54:32;;;;;;;9.60;6.40;;;7.10;99.90;;;;;;4989215;28;20050;-89
2022/11/15 03:57:17;;;;;;;8.50;5.32;;;7.20;99.90;;;;;;4986263;28;20104;-88
2022/11/15 04:00:01;;;;;;;9.90;5.78;;;7.30;99.90;;;;;;4982490;28;20108;-89
2022/11/15 04:02:45;;;;;;;11.65;5.53;;;7.30;99.90;;;;;;4993252;28;20096;-88
2022/11/15 04:05:30;;;;;;;10.85;5.60;;;7.30;99.90;;;;;;4999365;28;20497;-88
2022/11/15 04:08:14;;;;;;;10.65;5.38;;;7.40;99.90;;;;;;4983769;28;20064;-88
2022/11/15 04:10:58;;;;;;;13.40;6.13;;;7.40;99.90;;;;;;4989151;28;20041;-88
2022/11/15 04:13:42;;;;;;;13.57;6.35;;;7.40;99.90;;;;;;4988040;28;20061;-88
2022/11/15 04:16:26;;;;;;;14.73;6.43;;;7.50;99.90;;;;;;4988850;28;20130;-89
2022/11/15 04:25:56;;;;;;;9.65;5.55;;;7.60;99.90;;;;;;4985093;28;20045;-88
2022/11/15 04:31:44;;;;;;;12.20;5.88;;;7.60;99.90;;;;;;4986399;28;20041;-88
2022/11/15 04:34:28;;;;;;;10.73;5.80;;;7.70;99.90;;;;;;4982724;28;20077;-88
2022/11/15 04:37:12;;;;;;;11.30;6.05;;;7.80;99.90;;;;;;4985041;28;20049;-88
2022/11/15 04:39:56;;;;;;;9.45;5.97;;;7.80;99.90;;;;;;4982132;28;20067;-89
2022/11/15 04:42:42;;;;;;;10.80;5.90;;;7.90;99.90;;;;;;4987547;28;20060;-88
2022/11/15 04:45:26;;;;;;;11.82;6.60;;;7.90;99.90;;;;;;4987986;28;20096;-88
2022/11/15 04:48:10;;;;;;;15.57;8.45;;;7.90;99.90;;;;;;4981669;28;20070;-88
2022/11/15 04:50:55;;;;;;;15.55;7.22;;;8.00;99.90;;;;;;4998794;28;20045;-89
2022/11/15 04:53:39;;;;;;;19.02;7.75;;;8.10;99.90;;;;;;4991818;28;20573;-88
2022/11/15 04:56:23;;;;;;;13.77;8.68;;;8.00;99.90;;;;;;4984490;28;20042;-89
2022/11/15 04:59:07;;;;;;;13.00;7.15;;;8.00;99.90;;;;;;4985201;28;20174;-88
2022/11/15 05:01:51;;;;;;;13.57;7.43;;;7.90;99.90;;;;;;4987146;28;20046;-89
2022/11/15 05:04:35;;;;;;;12.52;6.38;;;7.90;99.90;;;;;;4986530;28;20532;-88
2022/11/15 05:07:19;;;;;;;17.10;7.05;;;7.90;99.90;;;;;;5001626;28;20045;-89
2022/11/15 05:10:04;;;;;;;9.35;6.28;;;7.90;99.90;;;;;;4987027;28;20045;-88
2022/11/15 05:12:48;;;;;;;14.20;6.13;;;7.90;99.90;;;;;;4985558;28;20041;-88
2022/11/15 05:15:32;;;;;;;10.30;5.78;;;8.00;99.90;;;;;;4991894;28;20053;-88
2022/11/15 05:18:16;;;;;;;12.18;5.13;;;8.00;99.90;;;;;;4985082;28;20111;-88
2022/11/15 05:21:05;;;;;;;11.80;5.45;;;8.00;99.90;;;;;;4979913;28;20081;-89
2022/11/15 05:23:49;;;;;;;12.10;4.70;;;8.10;99.90;;;;;;4984714;28;20142;-88
2022/11/15 05:26:34;;;;;;;11.93;5.00;;;8.10;99.90;;;;;;4985318;28;20492;-88
2022/11/15 05:29:18;;;;;;;10.52;5.85;;;8.10;99.90;;;;;;4987168;28;20050;-88
2022/11/15 05:32:06;;;;;;;8.90;5.47;;;8.10;99.90;;;;;;4981533;28;20134;-87
2022/11/15 05:34:50;;;;;;;15.30;5.72;;;8.00;99.90;;;;;;4985442;28;20042;-88
2022/11/15 05:37:34;;;;;;;11.55;5.68;;;7.90;99.90;;;;;;4986233;28;20077;-88
2022/11/15 05:40:18;;;;;;;10.10;6.28;;;7.70;99.90;;;;;;4997564;28;20096;-88
2022/11/15 05:43:04;;;;;;;10.05;5.97;;;7.60;99.90;;;;;;4983724;28;20528;-88
2022/11/15 05:45:48;;;;;;;14.00;7.40;;;7.50;99.90;;;;;;4991398;28;20899;-88
2022/11/15 05:48:36;;;;;;;11.75;7.18;;;7.40;99.90;;;;;;4983603;28;20049;-88
2022/11/15 05:51:21;;;;;;;14.68;8.25;;;7.20;99.90;;;;;;4986329;28;20041;-89
2022/11/15 05:54:05;;;;;;;13.77;6.57;;;7.00;99.90;;;;;;4983401;28;20532;-89
2022/11/15 05:56:50;;;;;;;9.48;6.07;;;6.80;99.90;;;;;;4984997;28;20550;-89
2022/11/15 05:59:35;;;;;;;10.35;5.57;;;6.70;99.90;;;;;;4985957;28;20129;-89
2022/11/15 06:02:20;;;;;;;9.70;5.70;;;6.70;99.90;;;;;;4983708;28;20052;-89
2022/11/15 06:05:04;;;;;;;9.27;5.72;;;6.60;99.90;;;;;;4982553;28;20041;-89
2022/11/15 06:07:48;;;;;;;12.30;7.45;;;6.60;99.90;;;;;;4982479;28;20413;-89
2022/11/15 06:10:33;;;;;;;10.38;6.55;;;6.60;99.90;;;;;;4983323;28;20070;-89
2022/11/15 06:13:41;;;;;;;28.23;11.63;;;6.60;99.90;;;;;;4985796;28;20599;-89
2022/11/15 06:16:26;;;;;;;44.47;21.83;;;6.50;99.90;;;;;;4986868;28;20045;-89
2022/11/15 06:19:10;;;;;;;16.77;10.07;;;6.40;99.90;;;;;;4967415;28;20058;-89
2022/11/15 06:21:54;;;;;;;14.15;7.35;;;6.40;99.90;;;;;;4971353;28;20181;-89
2022/11/15 06:24:39;;;;;;;13.25;6.50;;;6.40;99.90;;;;;;4974384;28;20130;-89
2022/11/15 06:27:23;;;;;;;11.18;5.97;;;6.60;99.90;;;;;;4973908;28;20420;-89
2022/11/15 06:30:08;;;;;;;6.97;4.72;;;6.90;99.90;;;;;;4973302;28;20051;-89
2022/11/15 06:32:59;;;;;;;8.27;5.05;;;7.20;99.90;;;;;;4969250;28;20382;-89
2022/11/15 06:35:43;;;;;;;11.45;5.00;;;7.50;99.90;;;;;;4971306;28;20616;-88
2022/11/15 06:38:27;;;;;;;15.27;7.93;;;7.60;99.90;;;;;;4964320;28;20252;-89
2022/11/15 06:41:13;;;;;;;38.63;23.88;;;7.70;99.90;;;;;;4972593;28;20406;-88
2022/11/15 06:43:57;;;;;;;32.38;19.83;;;7.70;99.90;;;;;;4972560;28;20045;-89
2022/11/15 06:46:42;;;;;;;21.52;15.15;;;7.60;99.90;;;;;;4971513;28;20054;-88
2022/11/15 06:49:26;;;;;;;15.95;8.88;;;7.40;99.90;;;;;;4967498;28;20042;-89
2022/11/15 06:52:10;;;;;;;14.73;6.78;;;7.30;99.90;;;;;;4978804;28;20037;-89
2022/11/15 06:54:54;;;;;;;10.85;5.65;;;7.10;99.90;;;;;;4986028;28;20115;-89
2022/11/15 07:01:26;;;;;;;13.07;6.78;;;6.90;99.90;;;;;;4972438;28;20514;-89
2022/11/15 07:04:10;;;;;;;15.85;8.05;;;6.70;99.90;;;;;;4989246;28;20034;-88
2022/11/15 07:06:54;;;;;;;12.25;7.22;;;6.60;99.90;;;;;;4984144;28;20085;-89
2022/11/15 07:09:38;;;;;;;9.98;6.28;;;6.50;99.90;;;;;;4970187;28;20081;-88
2022/11/15 07:12:22;;;;;;;10.63;6.88;;;6.50;99.90;;;;;;4974390;28;20058;-89
2022/11/15 07:15:07;;;;;;;13.02;6.20;;;6.40;99.90;;;;;;4974681;28;20042;-88
2022/11/15 07:17:51;;;;;;;11.80;5.63;;;6.50;99.90;;;;;;4988193;28;20089;-88
2022/11/15 07:20:36;;;;;;;10.18;5.68;;;6.80;99.90;;;;;;4982957;28;20058;-88
2022/11/15 07:23:20;;;;;;;18.33;5.80;;;7.00;99.90;;;;;;4976483;28;20088;-88
2022/11/15 07:26:05;;;;;;;13.95;6.32;;;7.30;99.90;;;;;;4970514;28;20457;-88
2022/11/15 07:28:50;;;;;;;8.18;5.47;;;7.50;99.90;;;;;;4972834;28;20168;-88
2022/11/15 07:31:35;;;;;;;6.78;4.57;;;7.60;99.90;;;;;;4971090;28;20073;-88
2022/11/15 07:34:19;;;;;;;13.02;5.97;;;7.70;99.90;;;;;;4969328;28;20054;-88
2022/11/15 07:37:04;;;;;;;14.70;6.15;;;7.70;99.90;;;;;;4984150;28;20029;-89
2022/11/15 07:39:48;;;;;;;9.98;6.13;;;7.80;99.90;;;;;;4971803;28;20137;-89
2022/11/15 07:45:43;;;;;;;14.02;6.22;;;7.70;99.90;;;;;;4976853;28;20046;-88
2022/11/15 07:48:28;;;;;;;13.20;7.03;;;7.70;99.90;;;;;;4969070;28;20089;-89
2022/11/15 07:51:21;;;;;;;15.20;7.10;;;7.80;99.90;;;;;;4973727;28;20579;-88
2022/11/15 07:54:05;;;;;;;19.75;6.70;;;7.90;99.90;;;;;;4978751;28;20041;-88
2022/11/15 07:56:50;;;;;;;10.20;6.20;;;8.00;99.90;;;;;;4961225;28;20101;-89
2022/11/15 07:59:34;;;;;;;14.63;6.35;;;8.10;99.90;;;;;;4978406;28;20045;-88
2022/11/15 08:02:25;;;;;;;18.13;6.60;;;8.20;99.90;;;;;;4975106;28;20561;-89
2022/11/15 08:05:09;;;;;;;12.75;5.75;;;8.30;99.90;;;;;;4975101;28;20459;-88
2022/11/15 08:07:55;;;;;;;12.27;6.47;;;8.40;99.90;;;;;;4988994;28;20049;-89
2022/11/15 08:10:41;;;;;;;12.90;7.85;;;8.40;99.90;;;;;;4971711;28;20042;-89
2022/11/15 08:13:25;;;;;;;9.40;5.28;;;8.40;99.90;;;;;;4976022;28;20049;-88
2022/11/15 08:16:11;;;;;;;21.52;8.48;;;8.50;99.90;;;;;;4982149;28;20062;-88
2022/11/15 08:18:56;;;;;;;15.93;7.20;;;8.60;99.90;;;;;;4974540;28;20038;-89
2022/11/15 08:21:40;;;;;;;12.68;6.50;;;8.90;99.90;;;;;;4975051;28;20053;-89
2022/11/15 08:24:24;;;;;;;16.15;7.18;;;9.20;99.90;;;;;;4975857;28;20397;-88
2022/11/15 08:27:24;;;;;;;16.15;5.25;;;9.40;99.90;;;;;;4985377;28;20445;-89
2022/11/15 08:30:09;;;;;;;12.57;5.15;;;9.50;99.90;;;;;;4974405;28;20402;-88
2022/11/15 08:32:55;;;;;;;8.90;4.97;;;9.60;99.90;;;;;;4974350;28;20402;-89
2022/11/15 08:35:41;;;;;;;9.35;5.53;;;9.70;99.90;;;;;;4975425;28;20037;-88
2022/11/15 08:38:26;;;;;;;7.68;4.78;;;9.90;99.90;;;;;;4974607;28;20122;-87
2022/11/15 08:41:14;;;;;;;9.40;4.47;;;10.00;99.90;;;;;;4973048;28;20038;-88
2022/11/15 08:43:59;;;;;;;10.20;4.13;;;10.10;99.90;;;;;;4979815;28;20046;-88
2022/11/15 08:46:46;;;;;;;5.85;4.00;;;10.10;99.90;;;;;;4967205;28;20061;-88
2022/11/15 08:49:30;;;;;;;6.90;4.40;;;10.10;99.90;;;;;;4983977;28;20045;-88
2022/11/15 08:52:15;;;;;;;7.78;4.53;;;10.10;99.90;;;;;;4974021;28;20041;-88
2022/11/15 08:55:00;;;;;;;9.82;4.38;;;10.00;99.90;;;;;;4977275;28;20113;-88
2022/11/15 08:57:45;;;;;;;10.43;4.35;;;10.00;99.90;;;;;;4997314;28;20129;-88
2022/11/15 09:00:29;;;;;;;7.82;4.45;;;10.10;99.90;;;;;;4988117;28;20181;-88
2022/11/15 09:03:13;;;;;;;11.57;5.18;;;10.20;99.90;;;;;;4980736;28;20045;-88
2022/11/15 09:06:16;;;;;;;12.35;6.55;;;10.20;99.90;;;;;;4975923;28;20045;-88
2022/11/15 09:09:01;;;;;;;11.07;5.57;;;10.40;99.90;;;;;;4973598;28;20398;-88
2022/11/15 09:11:46;;;;;;;10.63;6.22;;;10.50;99.90;;;;;;4984787;28;20086;-89
2022/11/15 09:14:30;;;;;;;13.82;6.00;;;10.60;99.90;;;;;;4986040;28;20056;-88
2022/11/15 09:17:14;;;;;;;6.68;5.07;;;10.70;99.90;;;;;;4981265;28;20671;-89
2022/11/15 09:19:58;;;;;;;10.45;5.80;;;10.80;99.90;;;;;;4978447;28;20042;-89
2022/11/15 09:22:43;;;;;;;8.85;5.05;;;10.80;99.90;;;;;;4989236;28;20049;-89
2022/11/15 09:25:28;;;;;;;11.48;5.63;;;10.80;99.90;;;;;;4981446;28;20118;-89
2022/11/15 09:28:12;;;;;;;8.10;4.47;;;10.70;99.90;;;;;;4974374;28;20516;-88
2022/11/15 09:31:01;;;;;;;6.82;4.68;;;10.80;99.90;;;;;;4981004;28;20037;-89
2022/11/15 09:33:46;;;;;;;8.00;5.20;;;10.70;99.90;;;;;;4985154;28;20050;-88
2022/11/15 09:36:30;;;;;;;9.23;4.90;;;10.80;99.90;;;;;;4983569;28;20058;-89
2022/11/15 09:39:14;;;;;;;9.10;4.70;;;10.90;99.90;;;;;;4980410;28;20121;-88
2022/11/15 09:42:30;;;;;;;7.03;4.13;;;10.90;99.90;;;;;;4985621;28;20747;-88
2022/11/15 09:45:23;;;;;;;14.00;4.97;;;10.90;99.90;;;;;;4996127;28;20045;-89
2022/11/15 09:48:37;;;;;;;8.45;4.75;;;11.00;99.90;;;;;;4982261;28;20073;-88
2022/11/15 09:51:49;;;;;;;10.50;4.35;;;11.20;99.90;;;;;;4980667;28;20034;-89
2022/11/15 09:54:15;;;;;;;6.03;4.53;;;11.40;99.90;;;;;;4985049;28;20046;-89
2022/11/15 09:56:43;;;;;;;10.48;4.40;;;11.50;99.90;;;;;;4983462;28;20030;-89
2022/11/15 09:59:31;;;;;;;7.72;4.53;;;11.50;99.90;;;;;;4968372;28;20058;-89
2022/11/15 10:02:02;;;;;;;7.78;3.72;;;11.50;99.90;;;;;;4999211;28;20160;-89
2022/11/15 10:04:28;;;;;;;13.90;4.20;;;11.50;99.90;;;;;;4985134;28;20037;-89
2022/11/15 10:07:06;;;;;;;6.88;4.20;;;11.60;99.90;;;;;;4965669;28;20157;-89
2022/11/15 10:09:47;;;;;;;10.07;4.50;;;11.50;99.90;;;;;;4987682;28;20034;-88
2022/11/15 10:12:15;;;;;;;5.95;4.25;;;11.60;99.90;;;;;;4965422;28;20030;-89
2022/11/15 10:14:42;;;;;;;6.70;4.07;;;11.80;99.90;;;;;;5005428;28;20077;-88
2022/11/15 10:17:29;;;;;;;7.75;4.30;;;12.00;99.90;;;;;;4965889;28;20038;-88
2022/11/15 10:20:10;;;;;;;4.50;3.25;;;12.20;99.90;;;;;;5005475;28;20027;-89
2022/11/15 10:22:41;;;;;;;9.60;4.03;;;12.40;99.90;;;;;;4981830;28;20035;-89
2022/11/15 10:25:12;;;;;;;5.22;3.83;;;12.30;99.90;;;;;;5000852;28;20050;-89
2022/11/15 10:27:40;;;;;;;7.40;3.80;;;12.20;99.90;;;;;;4982918;28;20085;-89
2022/11/15 10:30:14;;;;;;;5.68;3.78;;;12.40;99.90;;;;;;4968352;28;20034;-89
2022/11/15 10:32:43;;;;;;;8.13;3.50;;;12.60;99.90;;;;;;4978363;28;20068;-88
2022/11/15 10:35:23;;;;;;;15.90;6.07;;;12.50;99.90;;;;;;4984496;28;20027;-89
2022/11/15 10:37:49;;;;;;;7.63;3.88;;;12.50;99.90;;;;;;4965433;28;20065;-89
2022/11/15 10:40:24;;;;;;;7.32;3.28;;;12.60;99.90;;;;;;4985712;28;20038;-89
2022/11/15 10:43:09;;;;;;;9.98;5.47;;;12.70;99.90;;;;;;4965978;28;20076;-89
2022/11/15 10:45:35;;;;;;;8.60;3.88;;;12.80;99.90;;;;;;4988669;28;20125;-89
2022/11/15 10:48:13;;;;;;;5.20;3.30;;;13.00;99.90;;;;;;4982005;28;20038;-89
2022/11/15 10:50:45;;;;;;;6.47;3.40;;;12.90;99.90;;;;;;4986855;28;20034;-89
2022/11/15 10:53:19;;;;;;;6.45;3.72;;;13.00;99.90;;;;;;4988294;28;20031;-88
2022/11/15 10:55:51;;;;;;;5.40;3.60;;;13.10;99.90;;;;;;4976572;28;20035;-89
2022/11/15 10:58:37;;;;;;;4.15;3.33;;;13.10;99.90;;;;;;4980339;28;20034;-89
2022/11/15 11:01:13;;;;;;;4.60;3.33;;;13.00;99.90;;;;;;4975061;28;20620;-88
2022/11/15 11:03:41;;;;;;;7.57;3.70;;;12.90;99.90;;;;;;4991742;28;20034;-89
2022/11/15 11:06:16;;;;;;;6.45;3.70;;;12.90;99.90;;;;;;4960455;28;20058;-88
2022/11/15 11:09:01;;;;;;;5.45;3.38;;;13.00;99.90;;;;;;4960434;28;20049;-88
2022/11/15 11:11:48;;;;;;;4.78;3.70;;;13.00;99.90;;;;;;4975553;28;20031;-88
2022/11/15 11:14:26;;;;;;;6.57;3.40;;;13.00;99.90;;;;;;4959386;28;20514;-88
2022/11/15 11:17:26;;;;;;;5.18;3.20;;;13.00;99.90;;;;;;4986446;28;20082;-89
2022/11/15 11:20:00;;;;;;;11.00;3.50;;;13.10;99.90;;;;;;4983759;28;20125;-89
2022/11/15 11:23:03;;;;;;;8.48;3.70;;;13.20;99.90;;;;;;4973828;28;20031;-89
2022/11/15 11:25:53;;;;;;;7.25;3.20;;;13.30;99.90;;;;;;4959036;28;20483;-89
2022/11/15 11:28:25;;;;;;;5.65;2.90;;;13.30;99.90;;;;;;4981987;28;20067;-89
2022/11/15 11:31:36;;;;;;;7.93;3.33;;;13.40;99.90;;;;;;4975460;28;20050;-89
2022/11/15 11:34:16;;;;;;;9.55;4.05;;;13.40;99.90;;;;;;4984438;28;20038;-89
2022/11/15 11:36:51;;;;;;;9.15;5.00;;;13.60;99.90;;;;;;4976431;28;20023;-88
2022/11/15 11:39:38;;;;;;;5.53;3.28;;;13.60;99.90;;;;;;4976506;28;20070;-88
2022/11/15 11:42:29;;;;;;;6.70;4.63;;;13.50;99.90;;;;;;4974797;28;20023;-89
2022/11/15 11:45:14;;;;;;;4.68;2.80;;;13.50;99.90;;;;;;4974615;28;20026;-88
2022/11/15 11:47:48;;;;;;;5.97;3.47;;;13.40;99.90;;;;;;4991571;28;20039;-88
2022/11/15 11:50:24;;;;;;;8.63;3.70;;;13.30;99.90;;;;;;4971618;28;20042;-89
2022/11/15 11:53:14;;;;;;;9.13;3.30;;;13.30;99.90;;;;;;4985315;28;20034;-89
2022/11/15 11:55:42;;;;;;;6.03;3.50;;;13.20;99.90;;;;;;4967685;28;20086;-89
2022/11/15 11:58:17;;;;;;;5.10;3.33;;;13.00;99.90;;;;;;4986965;28;20378;-89
2022/11/15 12:01:29;;;;;;;5.60;3.67;;;12.90;99.90;;;;;;4984186;28;20039;-88
2022/11/15 12:04:04;;;;;;;;;;;12.80;99.90;;;;;;4954094;28;20066;-89
2022/11/15 12:07:03;;;;;;;5.13;3.10;;;12.50;99.90;;;;;;4990500;28;20272;-88
2022/11/15 12:09:31;;;;;;;9.77;3.35;;;12.20;99.90;;;;;;4981846;28;20066;-89
2022/11/15 12:12:08;;;;;;;8.23;3.70;;;12.20;99.90;;;;;;4986884;28;20691;-89
2022/11/15 12:14:48;;;;;;;5.13;3.38;;;12.20;99.90;;;;;;5000633;28;20027;-90
2022/11/15 12:17:17;;;;;;;9.25;3.80;;;12.20;99.90;;;;;;5002902;28;20490;-89
2022/11/15 12:19:43;;;;;;;8.32;3.50;;;12.10;99.90;;;;;;4984770;28;20019;-89
2022/11/15 12:22:28;;;;;;;8.15;3.92;;;12.10;99.90;;;;;;4982448;28;20053;-89
2022/11/15 12:25:49;;;;;;;5.65;3.30;;;12.10;99.90;;;;;;5002051;28;20129;-89
2022/11/15 12:28:45;;;;;;;7.50;4.33;;;12.20;99.90;;;;;;4972979;28;20038;-89
2022/11/15 12:31:13;;;;;;;4.93;3.20;;;12.40;99.90;;;;;;4961639;28;20042;-89
2022/11/15 12:33:45;;;;;;;7.05;3.35;;;12.30;99.90;;;;;;4990298;28;20030;-89
2022/11/15 12:36:29;;;;;;;6.55;3.60;;;12.30;99.90;;;;;;4960140;28;20050;-88
2022/11/15 12:38:59;;;;;;;6.82;3.58;;;12.40;99.90;;;;;;4989678;28;20054;-90
2022/11/15 12:41:28;;;;;;;6.35;3.47;;;12.20;99.90;;;;;;4961632;28;20127;-89
2022/11/15 12:43:55;;;;;;;8.60;3.40;;;12.30;99.90;;;;;;4974002;28;20055;-89
2022/11/15 12:46:30;;;;;;;11.98;4.03;;;12.30;99.90;;;;;;4965900;28;20030;-89
2022/11/15 12:48:57;;;;;;;4.80;3.30;;;12.30;99.90;;;;;;4973277;28;20482;-89
2022/11/15 12:51:43;;;;;;;6.07;3.63;;;12.40;99.90;;;;;;4954971;28;20486;-88
2022/11/15 12:54:24;;;;;;;10.25;3.95;;;12.40;99.90;;;;;;4984382;28;20431;-89
2022/11/15 12:57:08;;;;;;;7.95;3.25;;;12.40;99.90;;;;;;4980074;28;20106;-89
2022/11/15 12:59:57;;;;;;;12.68;5.43;;;12.50;99.90;;;;;;4965062;28;20066;-89
2022/11/15 13:02:32;;;;;;;11.98;5.00;;;12.60;99.90;;;;;;4958931;28;20034;-88
2022/11/15 13:05:41;;;;;;;6.90;3.78;;;12.60;99.90;;;;;;5007930;28;20133;-89
2022/11/15 13:08:07;;;;;;;10.00;4.70;;;12.40;99.90;;;;;;4988301;28;20782;-88
2022/11/15 13:10:33;;;;;;;11.82;4.20;;;12.20;99.90;;;;;;4957240;28;20125;-91
2022/11/15 13:13:09;;;;;;;5.63;3.60;;;12.20;99.90;;;;;;4956099;28;20164;-89
2022/11/15 13:15:59;;;;;;;6.00;4.28;;;12.20;99.90;;;;;;4967383;28;20023;-89
2022/11/15 13:24:57;;;;;;;7.18;4.60;;;12.10;99.90;;;;;;4982145;28;20035;-88
2022/11/15 13:27:24;;;;;;;7.05;4.20;;;12.00;99.90;;;;;;4973458;28;20035;-88
2022/11/15 13:29:50;;;;;;;9.05;3.80;;;12.10;99.90;;;;;;4991337;28;20114;-88
2022/11/15 13:32:16;;;;;;;8.55;4.07;;;12.00;99.90;;;;;;4968820;28;20030;-89
2022/11/15 13:34:48;;;;;;;7.15;3.58;;;11.80;99.90;;;;;;4972502;28;20027;-89
2022/11/15 13:37:19;;;;;;;;;;;11.80;99.90;;;;;;4993732;28;20037;-87
2022/11/15 13:39:45;;;;;;;;;;;11.70;99.90;;;;;;4987132;28;19925;-86
2022/11/15 13:42:19;;;;;;;6.82;3.83;;;11.70;99.90;;;;;;4974050;28;20358;-87
2022/11/15 13:45:01;;;;;;;8.30;4.47;;;11.70;99.90;;;;;;4956945;28;20034;-86
2022/11/15 13:47:28;;;;;;;;;;;11.60;99.90;;;;;;4987243;28;20533;-87
2022/11/15 13:49:57;;;;;;;7.25;4.75;;;11.60;99.90;;;;;;4980727;28;19925;-86
2022/11/15 13:52:27;;;;;;;10.40;4.53;;;11.60;99.90;;;;;;4987620;28;20030;-87
2022/11/15 13:55:40;;;;;;;8.00;4.43;;;11.70;99.90;;;;;;4965395;28;20121;-87
2022/11/15 13:58:09;;;;;;;8.57;4.63;;;11.60;99.90;;;;;;4988104;28;20030;-87
2022/11/15 14:00:42;;;;;;;14.95;5.78;;;11.80;99.90;;;;;;4982231;28;20030;-87
2022/11/15 14:03:15;;;;;;;10.38;5.97;;;11.80;99.90;;;;;;4968298;28;20807;-87
2022/11/15 14:05:41;;;;;;;8.55;3.90;;;11.90;99.90;;;;;;4983123;28;20057;-87
2022/11/15 14:08:19;;;;;;;8.30;3.83;;;11.90;99.90;;;;;;4984481;28;20030;-87
2022/11/15 14:10:45;;;;;;;8.75;4.22;;;11.80;99.90;;;;;;4972419;28;20501;-87
2022/11/15 14:13:29;;;;;;;9.07;4.05;;;11.60;99.90;;;;;;4964138;28;20023;-86
2022/11/15 14:16:19;;;;;;;8.65;5.07;;;11.50;99.90;;;;;;4967335;28;20067;-87
2022/11/15 14:18:47;;;;;;;8.93;4.47;;;11.40;99.90;;;;;;4974451;28;20027;-87
2022/11/15 14:21:57;;;;;;;6.65;3.80;;;11.40;99.90;;;;;;4977766;28;20263;-86
2022/11/15 14:24:31;;;;;;;8.18;3.40;;;11.40;99.90;;;;;;4974963;28;20032;-87
2022/11/15 14:26:57;;;;;;;7.22;2.90;;;11.50;99.90;;;;;;4973182;28;20648;-87
2022/11/15 14:29:24;;;;;;;7.70;3.95;;;11.50;99.90;;;;;;4971158;28;20101;-87
2022/11/15 14:31:51;;;;;;;10.75;4.03;;;11.50;99.90;;;;;;4979410;28;20423;-87
2022/11/15 14:34:16;;;;;;;11.43;4.25;;;11.50;99.90;;;;;;4978077;28;20023;-87
2022/11/15 14:36:42;;;;;;;5.57;3.40;;;11.40;99.90;;;;;;4995885;28;20024;-87
2022/11/15 14:39:09;;;;;;;9.32;4.25;;;11.30;99.90;;;;;;4963629;28;20022;-87
2022/11/15 14:41:38;;;;;;;11.27;4.93;;;11.20;99.90;;;;;;4965895;28;20033;-87
2022/11/15 14:44:05;;;;;;;12.50;4.07;;;11.10;99.90;;;;;;4972631;28;20051;-88